createdAt,value
2023-01-19T00:00:31.013Z,6.50
2023-01-19T00:01:32.976Z,6.50
2023-01-19T00:02:34.888Z,6.50
2023-01-19T00:03:37.168Z,6.50
2023-01-19T00:04:39.139Z,6.60
2023-01-19T00:05:41.289Z,6.60
2023-01-19T00:06:43.266Z,6.60
2023-01-19T00:07:45.961Z,6.60
2023-01-19T00:08:49.799Z,6.60
2023-01-19T00:09:51.748Z,6.60
2023-01-19T00:10:53.797Z,6.70
2023-01-19T00:11:55.751Z,6.70
2023-01-19T00:12:58.189Z,6.70
2023-01-19T00:14:00.601Z,6.60
2023-01-19T00:15:02.620Z,6.60
2023-01-19T00:16:04.930Z,6.60
2023-01-19T00:17:07.399Z,6.70
2023-01-19T00:18:10.906Z,6.70
2023-01-19T00:19:13.195Z,6.70
2023-01-19T00:20:15.217Z,6.70
2023-01-19T00:21:17.689Z,6.70
2023-01-19T00:22:19.639Z,6.70
2023-01-19T00:23:21.802Z,6.80
2023-01-19T00:24:23.795Z,6.70
2023-01-19T00:25:25.802Z,6.70
2023-01-19T00:26:27.793Z,6.70
2023-01-19T00:27:30.568Z,6.70
2023-01-19T00:28:32.612Z,6.70
2023-01-19T00:29:35.350Z,6.70
2023-01-19T00:30:38.250Z,6.70
2023-01-19T00:31:40.288Z,6.70
2023-01-19T00:32:42.350Z,6.70
2023-01-19T00:33:44.351Z,6.70
2023-01-19T00:34:49.869Z,6.70
2023-01-19T00:35:53.324Z,6.80
2023-01-19T00:36:55.267Z,6.80
2023-01-19T00:37:58.547Z,6.80
2023-01-19T00:39:00.812Z,6.80
2023-01-19T00:40:02.934Z,6.80
2023-01-19T00:41:05.065Z,6.80
2023-01-19T00:42:25.370Z,6.80
2023-01-19T00:43:28.277Z,6.80
2023-01-19T00:44:30.189Z,6.80
2023-01-19T00:45:33.226Z,6.80
2023-01-19T00:46:35.226Z,6.80
2023-01-19T00:47:39.222Z,6.80
2023-01-19T00:48:41.220Z,6.80
2023-01-19T00:49:43.200Z,6.90
2023-01-19T00:50:45.194Z,6.90
2023-01-19T00:51:47.149Z,6.90
2023-01-19T00:52:49.593Z,7.00
2023-01-19T00:53:51.937Z,7.00
2023-01-19T00:54:53.863Z,7.00
2023-01-19T00:55:55.917Z,7.00
2023-01-19T00:56:57.922Z,7.00
2023-01-19T00:58:00.014Z,7.00
2023-01-19T00:59:02.002Z,7.00
2023-01-19T01:00:11.829Z,7.00
2023-01-19T01:01:15.118Z,7.00
2023-01-19T01:02:17.506Z,7.10
2023-01-19T01:03:19.615Z,7.10
2023-01-19T01:04:21.599Z,7.10
2023-01-19T01:05:23.792Z,7.10
2023-01-19T01:06:25.821Z,7.00
2023-01-19T01:07:27.743Z,7.00
2023-01-19T01:08:30.578Z,7.00
2023-01-19T01:09:32.721Z,7.00
2023-01-19T01:10:34.730Z,7.00
2023-01-19T01:11:36.646Z,7.00
2023-01-19T01:12:39.402Z,7.00
2023-01-19T01:13:41.406Z,7.00
2023-01-19T01:14:43.497Z,7.00
2023-01-19T01:15:50.229Z,6.90
2023-01-19T01:16:52.315Z,7.00
2023-01-19T01:17:55.113Z,7.00
2023-01-19T01:18:57.146Z,7.00
2023-01-19T01:19:59.306Z,7.00
2023-01-19T01:21:03.091Z,7.00
2023-01-19T01:22:05.535Z,7.00
2023-01-19T01:23:07.487Z,7.00
2023-01-19T01:24:10.067Z,7.00
2023-01-19T01:25:13.939Z,7.00
2023-01-19T01:26:15.912Z,6.90
2023-01-19T01:27:18.008Z,6.90
2023-01-19T01:28:20.049Z,6.90
2023-01-19T01:29:22.123Z,6.90
2023-01-19T01:30:24.195Z,6.90
2023-01-19T01:31:26.322Z,6.90
2023-01-19T01:32:28.681Z,6.80
2023-01-19T01:33:41.189Z,6.70
2023-01-19T01:34:43.977Z,6.70
2023-01-19T01:35:46.069Z,6.60
2023-01-19T01:36:48.056Z,6.60
2023-01-19T01:37:50.093Z,6.60
2023-01-19T01:38:52.076Z,6.50
2023-01-19T01:39:54.075Z,6.50
2023-01-19T01:40:56.125Z,6.50
2023-01-19T01:41:58.005Z,6.60
2023-01-19T01:43:00.262Z,6.60
2023-01-19T01:44:06.298Z,6.60
2023-01-19T01:45:30.783Z,6.60
2023-01-19T01:46:33.116Z,6.70
2023-01-19T01:47:44.199Z,6.60
2023-01-19T01:48:51.516Z,6.60
2023-01-19T01:50:13.771Z,6.60
2023-01-19T01:51:26.162Z,6.60
2023-01-19T01:52:31.790Z,6.60
2023-01-19T01:53:35.646Z,6.60
2023-01-19T01:54:37.681Z,6.60
2023-01-19T01:55:44.505Z,6.60
2023-01-19T01:56:52.991Z,6.60
2023-01-19T01:57:58.957Z,6.70
2023-01-19T01:59:04.860Z,6.70
2023-01-19T02:00:07.672Z,6.70
2023-01-19T02:01:29.155Z,6.70
2023-01-19T02:02:51.481Z,6.80
2023-01-19T02:03:54.504Z,6.80
2023-01-19T02:05:05.409Z,6.80
2023-01-19T02:06:08.274Z,6.70
2023-01-19T02:07:34.804Z,6.70
2023-01-19T02:09:16.642Z,6.70
2023-01-19T02:10:37.184Z,6.60
2023-01-19T02:11:58.374Z,6.60
2023-01-19T02:13:21.763Z,6.60
2023-01-19T02:14:23.710Z,6.60
2023-01-19T02:15:25.583Z,6.60
2023-01-19T02:16:27.555Z,6.60
2023-01-19T02:17:29.625Z,6.50
2023-01-19T02:18:32.385Z,6.50
2023-01-19T02:19:42.149Z,6.50
2023-01-19T02:20:53.629Z,6.60
2023-01-19T02:22:19.007Z,6.60
2023-01-19T02:23:48.334Z,6.60
2023-01-19T02:24:50.442Z,6.60
2023-01-19T02:25:53.819Z,6.60
2023-01-19T02:26:56.669Z,6.60
2023-01-19T02:27:59.143Z,6.70
2023-01-19T02:29:04.248Z,6.70
2023-01-19T02:30:07.511Z,6.70
2023-01-19T02:31:10.606Z,6.70
2023-01-19T02:32:12.951Z,6.70
2023-01-19T02:33:14.952Z,6.60
2023-01-19T02:34:19.618Z,6.60
2023-01-19T02:35:23.706Z,6.60
2023-01-19T02:36:34.989Z,6.50
2023-01-19T02:37:40.197Z,6.50
2023-01-19T02:38:45.088Z,6.40
2023-01-19T02:39:53.384Z,6.40
2023-01-19T02:40:58.812Z,6.40
2023-01-19T02:42:06.273Z,6.50
2023-01-19T02:43:09.042Z,6.40
2023-01-19T02:44:12.634Z,6.40
2023-01-19T02:45:17.855Z,6.40
2023-01-19T02:46:19.822Z,6.40
2023-01-19T02:47:21.981Z,6.40
2023-01-19T02:48:24.072Z,6.40
2023-01-19T02:49:29.576Z,6.40
2023-01-19T02:50:42.056Z,6.40
2023-01-19T02:51:44.568Z,6.30
2023-01-19T02:52:46.646Z,6.40
2023-01-19T02:54:06.735Z,6.40
2023-01-19T02:55:21.259Z,6.40
2023-01-19T02:56:47.848Z,6.40
2023-01-19T02:58:15.241Z,6.40
2023-01-19T02:59:41.274Z,6.40
2023-01-19T03:01:01.433Z,6.40
2023-01-19T03:02:26.771Z,6.40
2023-01-19T03:03:42.271Z,6.40
2023-01-19T03:05:05.193Z,6.40
2023-01-19T03:06:40.895Z,6.50
2023-01-19T03:07:55.436Z,6.40
2023-01-19T03:09:10.271Z,6.40
2023-01-19T03:10:20.690Z,6.40
2023-01-19T03:11:26.959Z,6.40
2023-01-19T03:13:04.324Z,6.40
2023-01-19T03:14:12.243Z,6.40
2023-01-19T03:15:51.255Z,6.40
2023-01-19T03:16:59.412Z,6.50
2023-01-19T03:18:02.925Z,6.50
2023-01-19T03:19:11.777Z,6.50
2023-01-19T03:20:16.390Z,6.50
2023-01-19T03:21:19.695Z,6.60
2023-01-19T03:22:27.816Z,6.60
2023-01-19T03:23:32.468Z,6.60
2023-01-19T03:24:40.155Z,6.60
2023-01-19T03:25:45.589Z,6.60
2023-01-19T03:26:58.784Z,6.60
2023-01-19T03:28:02.008Z,6.60
2023-01-19T03:29:07.071Z,6.60
2023-01-19T03:30:14.026Z,6.50
2023-01-19T03:31:19.635Z,6.50
2023-01-19T03:32:29.775Z,6.50
2023-01-19T03:33:35.645Z,6.50
2023-01-19T03:34:39.217Z,6.50
2023-01-19T03:35:45.940Z,6.50
2023-01-19T03:36:54.175Z,6.50
2023-01-19T03:37:58.224Z,6.40
2023-01-19T03:39:02.938Z,6.50
2023-01-19T03:40:05.647Z,6.50
2023-01-19T03:41:13.543Z,6.50
2023-01-19T03:42:17.873Z,6.50
2023-01-19T03:43:21.382Z,6.40
2023-01-19T03:44:26.071Z,6.40
2023-01-19T03:45:28.306Z,6.50
2023-01-19T03:46:31.932Z,6.40
2023-01-19T03:47:35.366Z,6.50
2023-01-19T03:48:38.357Z,6.50
2023-01-19T03:49:44.004Z,6.50
2023-01-19T03:50:46.048Z,6.50
2023-01-19T03:51:48.706Z,6.50
2023-01-19T03:53:09.426Z,6.50
2023-01-19T03:54:11.624Z,6.50
2023-01-19T03:55:13.752Z,6.50
2023-01-19T03:56:24.484Z,6.60
2023-01-19T03:57:26.671Z,6.60
2023-01-19T03:58:28.743Z,6.60
2023-01-19T03:59:30.713Z,6.60
2023-01-19T04:00:33.388Z,6.60
2023-01-19T04:01:35.357Z,6.60
2023-01-19T04:02:37.628Z,6.60
2023-01-19T04:03:39.793Z,6.60
2023-01-19T04:04:41.839Z,6.60
2023-01-19T04:05:45.667Z,6.60
2023-01-19T04:06:47.793Z,6.60
2023-01-19T04:07:50.909Z,6.60
2023-01-19T04:08:52.903Z,6.60
2023-01-19T04:09:54.848Z,6.60
2023-01-19T04:10:58.218Z,6.60
2023-01-19T04:12:01.932Z,6.60
2023-01-19T04:13:04.748Z,6.60
2023-01-19T04:14:06.785Z,6.60
2023-01-19T04:15:08.844Z,6.60
2023-01-19T04:16:12.883Z,6.50
2023-01-19T04:17:16.136Z,6.50
2023-01-19T04:18:18.090Z,6.50
2023-01-19T04:19:20.036Z,6.50
2023-01-19T04:20:22.036Z,6.50
2023-01-19T04:21:24.133Z,6.40
2023-01-19T04:22:26.336Z,6.40
2023-01-19T04:23:28.833Z,6.40
2023-01-19T04:24:30.884Z,6.40
2023-01-19T04:25:33.340Z,6.40
2023-01-19T04:26:35.267Z,6.40
2023-01-19T04:27:37.271Z,6.40
2023-01-19T04:28:39.428Z,6.40
2023-01-19T04:29:41.357Z,6.40
2023-01-19T04:30:43.306Z,6.40
2023-01-19T04:31:45.359Z,6.30
2023-01-19T04:32:47.361Z,6.30
2023-01-19T04:33:49.623Z,6.30
2023-01-19T04:34:51.895Z,6.20
2023-01-19T04:35:54.660Z,6.20
2023-01-19T04:36:56.664Z,6.20
2023-01-19T04:37:58.607Z,6.20
2023-01-19T04:39:00.583Z,6.20
2023-01-19T04:40:02.542Z,6.10
2023-01-19T04:41:04.766Z,6.10
2023-01-19T04:42:06.854Z,6.00
2023-01-19T04:43:10.051Z,6.00
2023-01-19T04:44:12.021Z,6.00
2023-01-19T04:45:14.498Z,6.00
2023-01-19T04:46:16.576Z,6.00
2023-01-19T04:47:18.503Z,6.00
2023-01-19T04:48:20.591Z,6.00
2023-01-19T04:49:22.544Z,6.00
2023-01-19T04:50:24.917Z,6.00
2023-01-19T04:51:28.800Z,5.90
2023-01-19T04:52:35.148Z,5.90
2023-01-19T04:53:37.285Z,5.90
2023-01-19T04:54:39.326Z,5.90
2023-01-19T04:55:41.428Z,5.90
2023-01-19T04:56:43.430Z,5.90
2023-01-19T04:57:45.929Z,5.90
2023-01-19T04:58:47.877Z,5.80
2023-01-19T04:59:49.811Z,5.80
2023-01-19T05:00:53.172Z,5.80
2023-01-19T05:01:56.485Z,5.80
2023-01-19T05:02:59.026Z,5.80
2023-01-19T05:04:03.744Z,5.70
2023-01-19T05:05:05.980Z,5.70
2023-01-19T05:06:08.023Z,5.70
2023-01-19T05:07:10.383Z,5.70
2023-01-19T05:08:12.808Z,5.70
2023-01-19T05:09:15.429Z,5.60
2023-01-19T05:10:17.503Z,5.60
2023-01-19T05:11:19.417Z,5.60
2023-01-19T05:12:21.972Z,5.60
2023-01-19T05:13:24.261Z,5.60
2023-01-19T05:14:26.235Z,5.60
2023-01-19T05:15:28.196Z,5.50
2023-01-19T05:16:30.203Z,5.50
2023-01-19T05:17:32.214Z,5.50
2023-01-19T05:18:37.194Z,5.50
2023-01-19T05:19:39.157Z,5.50
2023-01-19T05:20:41.321Z,5.40
2023-01-19T05:21:43.221Z,5.40
2023-01-19T05:22:52.655Z,5.40
2023-01-19T05:23:54.635Z,5.40
2023-01-19T05:24:56.598Z,5.40
2023-01-19T05:26:00.936Z,5.30
2023-01-19T05:27:02.981Z,5.30
2023-01-19T05:28:05.094Z,5.30
2023-01-19T05:29:07.099Z,5.30
2023-01-19T05:30:10.022Z,5.30
2023-01-19T05:31:12.052Z,5.30
2023-01-19T05:32:14.020Z,5.30
2023-01-19T05:33:16.114Z,5.30
2023-01-19T05:34:18.390Z,5.20
2023-01-19T05:35:31.367Z,5.20
2023-01-19T05:36:37.491Z,5.10
2023-01-19T05:37:39.765Z,5.10
2023-01-19T05:38:41.695Z,5.00
2023-01-19T05:39:43.663Z,5.00
2023-01-19T05:40:45.811Z,5.00
2023-01-19T05:41:47.805Z,4.90
2023-01-19T05:42:49.802Z,4.90
2023-01-19T05:43:51.711Z,4.80
2023-01-19T05:44:53.668Z,4.80
2023-01-19T05:45:55.577Z,4.80
2023-01-19T05:46:57.719Z,4.80
2023-01-19T05:48:00.117Z,4.70
2023-01-19T05:49:04.290Z,4.70
2023-01-19T05:50:06.885Z,4.70
2023-01-19T05:51:09.153Z,4.70
2023-01-19T05:52:11.058Z,4.70
2023-01-19T05:53:12.998Z,4.70
2023-01-19T05:54:15.542Z,4.70
2023-01-19T05:55:17.557Z,4.70
2023-01-19T05:56:19.504Z,4.70
2023-01-19T05:57:22.246Z,4.60
2023-01-19T05:58:24.431Z,4.60
2023-01-19T05:59:26.418Z,4.50
2023-01-19T06:00:29.221Z,4.50
2023-01-19T06:01:31.743Z,4.50
2023-01-19T06:02:33.706Z,4.50
2023-01-19T06:03:37.299Z,4.50
2023-01-19T06:04:39.382Z,4.50
2023-01-19T06:05:41.449Z,4.50
2023-01-19T06:06:43.442Z,4.50
2023-01-19T06:07:45.401Z,4.50
2023-01-19T06:08:47.746Z,4.50
2023-01-19T06:09:49.716Z,4.50
2023-01-19T06:10:51.670Z,4.40
2023-01-19T06:11:55.733Z,4.40
2023-01-19T06:12:57.700Z,4.50
2023-01-19T06:13:59.705Z,4.40
2023-01-19T06:15:01.852Z,4.40
2023-01-19T06:16:03.956Z,4.40
2023-01-19T06:17:06.742Z,4.40
2023-01-19T06:18:08.840Z,4.50
2023-01-19T06:19:11.202Z,4.50
2023-01-19T06:20:16.035Z,4.50
2023-01-19T06:21:18.014Z,4.50
2023-01-19T06:22:19.975Z,4.50
2023-01-19T06:23:21.966Z,4.50
2023-01-19T06:24:25.311Z,4.50
2023-01-19T06:25:27.383Z,4.50
2023-01-19T06:26:29.440Z,4.50
2023-01-19T06:27:31.447Z,4.40
2023-01-19T06:28:33.490Z,4.40
2023-01-19T06:29:35.441Z,4.40
2023-01-19T06:30:37.473Z,4.50
2023-01-19T06:31:39.679Z,4.50
2023-01-19T06:32:41.623Z,4.50
2023-01-19T06:33:43.736Z,4.50
2023-01-19T06:34:46.545Z,4.50
2023-01-19T06:35:50.159Z,4.50
2023-01-19T06:36:52.089Z,4.60
2023-01-19T06:37:54.013Z,4.50
2023-01-19T06:38:55.990Z,4.60
2023-01-19T06:39:57.987Z,4.60
2023-01-19T06:41:00.098Z,4.60
2023-01-19T06:42:02.088Z,4.60
2023-01-19T06:43:04.098Z,4.60
2023-01-19T06:44:06.333Z,4.70
2023-01-19T06:45:10.154Z,4.70
2023-01-19T06:46:13.479Z,4.70
2023-01-19T06:47:16.569Z,4.70
2023-01-19T06:48:19.304Z,4.70
2023-01-19T06:49:21.266Z,4.70
2023-01-19T06:50:23.174Z,4.70
2023-01-19T06:51:25.566Z,4.70
2023-01-19T06:52:28.539Z,4.70
2023-01-19T06:53:30.500Z,4.70
2023-01-19T06:54:32.444Z,4.80
2023-01-19T06:55:36.535Z,4.80
2023-01-19T06:56:38.458Z,4.80
2023-01-19T06:57:40.741Z,4.80
2023-01-19T06:58:42.782Z,4.80
2023-01-19T06:59:44.861Z,4.80
2023-01-19T07:00:46.822Z,4.80
2023-01-19T07:01:48.832Z,4.80
2023-01-19T07:02:51.159Z,4.80
2023-01-19T07:03:53.151Z,4.80
2023-01-19T07:04:56.656Z,4.80
2023-01-19T07:06:00.309Z,4.80
2023-01-19T07:07:02.252Z,4.90
2023-01-19T07:08:04.453Z,4.90
2023-01-19T07:09:10.258Z,4.90
2023-01-19T07:10:15.711Z,4.90
2023-01-19T07:11:26.057Z,5.00
2023-01-19T07:12:34.973Z,5.00
2023-01-19T07:13:39.227Z,5.00
2023-01-19T07:14:41.227Z,5.00
2023-01-19T07:15:43.179Z,5.10
2023-01-19T07:16:45.172Z,5.10
2023-01-19T07:17:47.213Z,5.10
2023-01-19T07:18:50.124Z,5.10
2023-01-19T07:19:52.179Z,5.10
2023-01-19T07:20:54.089Z,5.20
2023-01-19T07:21:56.002Z,5.20
2023-01-19T07:22:58.772Z,5.20
2023-01-19T07:24:01.010Z,5.20
2023-01-19T07:25:03.060Z,5.30
2023-01-19T07:26:05.555Z,5.30
2023-01-19T07:27:07.802Z,5.30
2023-01-19T07:28:11.328Z,5.40
2023-01-19T07:29:13.272Z,5.40
2023-01-19T07:30:17.904Z,5.40
2023-01-19T07:31:20.380Z,5.40
2023-01-19T07:32:22.409Z,5.50
2023-01-19T07:33:26.263Z,5.50
2023-01-19T07:34:28.301Z,5.50
2023-01-19T07:35:30.519Z,5.50
2023-01-19T07:36:32.770Z,5.50
2023-01-19T07:37:35.459Z,5.50
2023-01-19T07:38:37.571Z,5.60
2023-01-19T07:39:39.652Z,5.60
2023-01-19T07:40:42.074Z,5.60
2023-01-19T07:41:43.991Z,5.60
2023-01-19T07:42:50.488Z,5.70
2023-01-19T07:43:52.920Z,5.70
2023-01-19T07:44:54.882Z,5.70
2023-01-19T07:46:00.967Z,5.80
2023-01-19T07:47:03.200Z,5.80
2023-01-19T07:48:05.972Z,5.90
2023-01-19T07:49:08.912Z,5.90
2023-01-19T07:50:13.066Z,5.90
2023-01-19T07:51:18.858Z,6.00
2023-01-19T07:52:22.882Z,6.00
2023-01-19T07:53:24.860Z,6.00
2023-01-19T07:54:26.799Z,6.10
2023-01-19T07:55:28.767Z,6.10
2023-01-19T07:56:33.891Z,6.20
2023-01-19T07:57:37.087Z,6.20
2023-01-19T07:58:39.907Z,6.20
2023-01-19T07:59:41.870Z,6.30
2023-01-19T08:00:43.926Z,6.30
2023-01-19T08:01:46.073Z,6.40
2023-01-19T08:02:51.905Z,6.50
2023-01-19T08:03:54.353Z,6.50
2023-01-19T08:04:56.484Z,6.60
2023-01-19T08:05:59.896Z,6.60
2023-01-19T08:07:02.083Z,6.60
2023-01-19T08:08:05.572Z,6.70
2023-01-19T08:09:08.497Z,6.70
2023-01-19T08:10:14.366Z,6.80
2023-01-19T08:11:17.382Z,7.00
2023-01-19T08:12:19.562Z,7.20
2023-01-19T08:13:21.591Z,7.50
2023-01-19T08:14:23.535Z,7.70
2023-01-19T08:15:26.017Z,7.90
2023-01-19T08:16:28.193Z,8.10
2023-01-19T08:17:30.352Z,8.30
2023-01-19T08:18:32.400Z,8.50
2023-01-19T08:19:34.333Z,8.80
2023-01-19T08:20:36.745Z,9.00
2023-01-19T08:21:39.092Z,9.20
2023-01-19T08:22:41.175Z,9.40
2023-01-19T08:23:43.167Z,9.50
2023-01-19T08:24:45.164Z,9.70
2023-01-19T08:25:47.202Z,9.90
2023-01-19T08:26:50.046Z,10.10
2023-01-19T08:27:54.648Z,10.20
2023-01-19T08:28:58.895Z,10.40
2023-01-19T08:30:00.928Z,10.60
2023-01-19T08:31:18.215Z,10.80
2023-01-19T08:32:21.661Z,11.00
2023-01-19T08:33:25.298Z,11.10
2023-01-19T08:34:27.466Z,11.30
2023-01-19T08:35:33.812Z,11.50
2023-01-19T08:36:35.895Z,11.80
2023-01-19T08:37:37.841Z,12.00
2023-01-19T08:38:43.538Z,12.20
2023-01-19T08:39:45.640Z,12.40
2023-01-19T08:40:49.076Z,12.60
2023-01-19T08:41:51.523Z,12.80
2023-01-19T08:42:53.577Z,12.90
2023-01-19T08:43:55.531Z,13.10
2023-01-19T08:44:58.284Z,13.30
2023-01-19T08:46:00.756Z,13.40
2023-01-19T08:47:02.714Z,13.50
2023-01-19T08:48:06.453Z,13.60
2023-01-19T08:49:09.406Z,13.70
2023-01-19T08:50:11.961Z,13.60
2023-01-19T08:51:15.404Z,13.70
2023-01-19T08:52:17.407Z,13.70
2023-01-19T08:53:21.152Z,13.70
2023-01-19T08:54:24.304Z,13.70
2023-01-19T08:55:27.136Z,13.80
2023-01-19T08:56:29.099Z,13.90
2023-01-19T08:57:31.075Z,14.10
2023-01-19T08:58:33.020Z,14.20
2023-01-19T08:59:34.917Z,14.30
2023-01-19T09:00:38.962Z,14.40
2023-01-19T09:01:41.461Z,14.50
2023-01-19T09:02:43.713Z,14.60
2023-01-19T09:03:45.942Z,14.60
2023-01-19T09:04:47.913Z,14.60
2023-01-19T09:05:50.479Z,14.80
2023-01-19T09:06:52.899Z,14.90
2023-01-19T09:07:54.891Z,14.90
2023-01-19T09:08:57.634Z,15.00
2023-01-19T09:09:59.563Z,15.00
2023-01-19T09:11:01.839Z,15.20
2023-01-19T09:12:04.080Z,15.30
2023-01-19T09:13:08.720Z,15.40
2023-01-19T09:14:10.768Z,15.60
2023-01-19T09:15:16.296Z,15.70
2023-01-19T09:16:18.485Z,15.70
2023-01-19T09:17:20.550Z,15.60
2023-01-19T09:18:22.907Z,15.70
2023-01-19T09:19:24.898Z,16.00
2023-01-19T09:20:27.017Z,16.10
2023-01-19T09:21:29.276Z,16.10
2023-01-19T09:22:31.253Z,16.40
2023-01-19T09:23:33.580Z,16.50
2023-01-19T09:24:36.909Z,16.50
2023-01-19T09:25:39.878Z,16.60
2023-01-19T09:26:41.870Z,16.50
2023-01-19T09:27:44.009Z,16.60
2023-01-19T09:28:46.491Z,16.50
2023-01-19T09:29:52.647Z,16.40
2023-01-19T09:30:54.893Z,16.30
2023-01-19T09:31:57.759Z,16.40
2023-01-19T09:33:08.126Z,16.50
2023-01-19T09:34:11.081Z,16.50
2023-01-19T09:35:13.580Z,16.50
2023-01-19T09:36:15.565Z,16.50
2023-01-19T09:37:17.726Z,16.50
2023-01-19T09:38:20.412Z,16.70
2023-01-19T09:39:22.368Z,16.80
2023-01-19T09:40:24.577Z,16.70
2023-01-19T09:41:26.885Z,16.60
2023-01-19T09:42:44.384Z,16.40
2023-01-19T09:43:58.024Z,16.30
2023-01-19T09:45:02.468Z,16.20
2023-01-19T09:46:19.645Z,16.10
2023-01-19T09:47:27.220Z,16.00
2023-01-19T09:48:45.941Z,16.00
2023-01-19T09:49:54.234Z,15.90
2023-01-19T09:50:59.864Z,15.90
2023-01-19T09:52:01.921Z,16.00
2023-01-19T09:53:30.336Z,16.20
2023-01-19T09:54:47.889Z,16.40
2023-01-19T09:55:51.233Z,16.40
2023-01-19T09:56:54.126Z,16.40
2023-01-19T09:57:56.118Z,16.60
2023-01-19T09:58:59.181Z,16.70
2023-01-19T10:00:01.165Z,16.70
2023-01-19T10:01:33.888Z,16.80
2023-01-19T10:02:53.246Z,16.70
2023-01-19T10:04:08.678Z,16.80
2023-01-19T10:05:37.455Z,16.80
2023-01-19T10:06:39.757Z,16.90
2023-01-19T10:08:09.656Z,16.70
2023-01-19T10:09:14.707Z,16.70
2023-01-19T10:10:26.533Z,16.50
2023-01-19T10:11:51.655Z,16.50
2023-01-19T10:13:04.134Z,16.40
2023-01-19T10:14:20.295Z,16.50
2023-01-19T10:15:28.307Z,16.60
2023-01-19T10:16:52.149Z,16.70
2023-01-19T10:18:18.179Z,16.80
2023-01-19T10:19:33.758Z,17.00
2023-01-19T10:20:41.592Z,17.00
2023-01-19T10:21:46.451Z,16.70
2023-01-19T10:22:50.301Z,16.70
2023-01-19T10:24:06.460Z,16.70
2023-01-19T10:25:17.538Z,16.70
2023-01-19T10:26:33.883Z,16.80
2023-01-19T10:27:37.681Z,16.80
2023-01-19T10:28:40.814Z,16.80
2023-01-19T10:29:42.845Z,16.80
2023-01-19T10:30:47.228Z,16.90
2023-01-19T10:31:52.929Z,17.00
2023-01-19T10:32:55.301Z,17.10
2023-01-19T10:33:58.114Z,17.20
2023-01-19T10:35:01.081Z,17.10
2023-01-19T10:36:15.305Z,17.10
2023-01-19T10:37:34.178Z,17.10
2023-01-19T10:38:36.446Z,17.20
2023-01-19T10:39:39.060Z,17.30
2023-01-19T10:40:57.736Z,17.40
2023-01-19T10:42:06.005Z,17.50
2023-01-19T10:43:46.016Z,17.30
2023-01-19T10:44:52.749Z,16.70
2023-01-19T10:45:54.994Z,16.60
2023-01-19T10:46:59.545Z,16.30
2023-01-19T10:48:06.974Z,16.30
2023-01-19T10:49:28.505Z,16.40
2023-01-19T10:50:37.229Z,16.10
2023-01-19T10:51:49.029Z,15.90
2023-01-19T10:52:53.896Z,15.90
2023-01-19T10:54:04.354Z,16.00
2023-01-19T10:55:20.193Z,16.10
2023-01-19T10:56:34.890Z,16.30
2023-01-19T10:57:41.004Z,16.60
2023-01-19T10:58:43.029Z,16.80
2023-01-19T10:59:44.892Z,16.50
2023-01-19T11:00:46.934Z,16.20
2023-01-19T11:02:18.643Z,16.20
2023-01-19T11:03:31.604Z,16.40
2023-01-19T11:04:33.627Z,16.50
2023-01-19T11:05:35.884Z,16.60
2023-01-19T11:06:37.791Z,16.60
2023-01-19T11:07:39.819Z,16.70
2023-01-19T11:08:43.672Z,16.70
2023-01-19T11:09:46.490Z,16.80
2023-01-19T11:10:55.917Z,16.80
2023-01-19T11:11:57.875Z,16.60
2023-01-19T11:13:12.726Z,16.60
2023-01-19T11:14:19.026Z,16.60
2023-01-19T11:15:59.829Z,16.60
2023-01-19T11:17:01.865Z,16.60
2023-01-19T11:18:05.937Z,16.60
2023-01-19T11:19:38.139Z,16.50
2023-01-19T11:20:53.824Z,16.50
2023-01-19T11:22:21.773Z,16.50
2023-01-19T11:23:42.020Z,16.40
2023-01-19T11:24:44.629Z,16.40
2023-01-19T11:25:49.459Z,16.50
2023-01-19T11:27:03.030Z,16.40
2023-01-19T11:28:05.688Z,16.30
2023-01-19T11:29:20.129Z,16.20
2023-01-19T11:30:25.847Z,16.20
2023-01-19T11:31:27.905Z,16.20
2023-01-19T11:32:30.174Z,16.30
2023-01-19T11:33:51.643Z,16.40
2023-01-19T11:34:53.651Z,16.40
2023-01-19T11:36:07.892Z,16.40
2023-01-19T11:37:19.415Z,16.30
2023-01-19T11:38:27.220Z,16.40
2023-01-19T11:39:31.262Z,16.50
2023-01-19T11:40:35.417Z,16.50
2023-01-19T11:41:39.453Z,16.50
2023-01-19T11:42:41.573Z,16.30
2023-01-19T11:43:49.352Z,16.30
2023-01-19T11:45:06.514Z,16.40
2023-01-19T11:46:13.249Z,16.40
2023-01-19T11:47:23.517Z,16.40
2023-01-19T11:48:56.637Z,16.50
2023-01-19T11:50:06.549Z,16.70
2023-01-19T11:51:19.223Z,17.00
2023-01-19T11:52:32.822Z,17.00
2023-01-19T11:53:35.684Z,17.00
2023-01-19T11:54:47.715Z,17.10
2023-01-19T11:55:55.598Z,17.00
2023-01-19T11:57:00.292Z,16.80
2023-01-19T11:58:04.733Z,16.50
2023-01-19T11:59:12.109Z,16.10
2023-01-19T12:00:26.121Z,15.70
2023-01-19T12:01:30.929Z,15.30
2023-01-19T12:02:43.757Z,15.00
2023-01-19T12:03:59.761Z,14.70
2023-01-19T12:05:06.693Z,14.60
2023-01-19T12:06:23.920Z,14.30
2023-01-19T12:07:33.011Z,14.00
2023-01-19T12:08:39.929Z,13.80
2023-01-19T12:09:48.658Z,13.70
2023-01-19T12:10:52.574Z,13.50
2023-01-19T12:12:06.617Z,13.30
2023-01-19T12:13:23.180Z,13.20
2023-01-19T12:14:50.502Z,13.00
2023-01-19T12:16:01.297Z,12.90
2023-01-19T12:17:06.977Z,12.70
2023-01-19T12:18:37.709Z,12.60
2023-01-19T12:19:55.591Z,12.50
2023-01-19T12:20:58.861Z,12.40
2023-01-19T12:22:01.887Z,12.30
2023-01-19T12:23:09.800Z,12.20
2023-01-19T12:24:34.634Z,12.10
2023-01-19T12:26:04.764Z,12.10
2023-01-19T12:27:18.383Z,12.00
2023-01-19T12:28:27.540Z,11.90
2023-01-19T12:29:33.779Z,11.80
2023-01-19T12:30:36.622Z,11.60
2023-01-19T12:31:40.642Z,11.50
2023-01-19T12:32:43.439Z,11.40
2023-01-19T12:33:45.525Z,11.20
2023-01-19T12:34:55.890Z,11.00
2023-01-19T12:36:45.428Z,10.90
2023-01-19T12:37:47.433Z,10.80
2023-01-19T12:38:55.341Z,10.60
2023-01-19T12:39:59.937Z,10.60
2023-01-19T12:41:31.257Z,10.50
2023-01-19T12:42:34.252Z,10.50
2023-01-19T12:43:36.249Z,10.50
2023-01-19T12:44:38.355Z,10.50
2023-01-19T12:45:48.165Z,10.50
2023-01-19T12:47:06.384Z,10.50
2023-01-19T12:48:25.217Z,10.60
2023-01-19T12:49:50.430Z,10.80
2023-01-19T12:50:52.472Z,11.00
2023-01-19T12:52:13.975Z,11.00
2023-01-19T12:53:19.027Z,11.20
2023-01-19T12:54:32.553Z,11.30
2023-01-19T12:55:39.125Z,11.30
2023-01-19T12:56:41.191Z,11.40
2023-01-19T12:57:58.051Z,11.40
2023-01-19T12:59:00.645Z,11.40
2023-01-19T13:00:07.864Z,11.40
2023-01-19T13:01:19.940Z,11.40
2023-01-19T13:02:25.177Z,11.50
2023-01-19T13:03:27.579Z,11.40
2023-01-19T13:04:31.772Z,11.40
2023-01-19T13:05:39.580Z,11.40
2023-01-19T13:06:47.955Z,11.40
2023-01-19T13:08:02.316Z,11.40
2023-01-19T13:09:24.355Z,11.40
2023-01-19T13:11:00.424Z,11.40
2023-01-19T13:12:14.570Z,11.30
2023-01-19T13:13:27.047Z,11.40
2023-01-19T13:14:37.252Z,11.40
2023-01-19T13:15:39.626Z,11.40
2023-01-19T13:16:41.670Z,11.30
2023-01-19T13:17:50.061Z,11.30
2023-01-19T13:19:06.293Z,11.30
2023-01-19T13:20:17.444Z,11.30
2023-01-19T13:21:41.873Z,11.30
2023-01-19T13:22:50.378Z,11.30
2023-01-19T13:23:57.663Z,11.30
2023-01-19T13:25:10.429Z,11.30
2023-01-19T13:26:16.352Z,11.30
2023-01-19T13:27:18.343Z,11.30
2023-01-19T13:28:30.263Z,11.30
2023-01-19T13:29:34.635Z,11.20
2023-01-19T13:30:39.895Z,11.20
2023-01-19T13:31:44.764Z,11.10
2023-01-19T13:32:47.532Z,11.10
2023-01-19T13:33:53.352Z,11.00
2023-01-19T13:35:01.982Z,11.00
2023-01-19T13:36:04.380Z,11.00
2023-01-19T13:37:11.841Z,11.00
2023-01-19T13:38:24.453Z,11.00
2023-01-19T13:39:36.898Z,11.10
2023-01-19T13:40:39.448Z,11.20
2023-01-19T13:41:42.229Z,11.40
2023-01-19T13:42:44.603Z,11.40
2023-01-19T13:43:49.015Z,11.40
2023-01-19T13:44:54.187Z,11.50
2023-01-19T13:45:56.611Z,11.60
2023-01-19T13:46:59.927Z,11.70
2023-01-19T13:48:05.863Z,11.90
2023-01-19T13:49:26.564Z,12.00
2023-01-19T13:50:38.677Z,12.20
2023-01-19T13:51:40.733Z,12.30
2023-01-19T13:52:43.923Z,12.50
2023-01-19T13:53:59.929Z,12.50
2023-01-19T13:55:04.324Z,12.50
2023-01-19T13:56:21.940Z,12.50
2023-01-19T13:57:26.955Z,12.60
2023-01-19T13:58:30.328Z,12.60
2023-01-19T13:59:32.297Z,12.50
2023-01-19T14:00:34.343Z,12.60
2023-01-19T14:01:38.288Z,12.60
2023-01-19T14:03:16.368Z,12.70
2023-01-19T14:04:32.339Z,12.70
2023-01-19T14:05:36.674Z,12.70
2023-01-19T14:06:44.872Z,12.70
2023-01-19T14:07:46.957Z,12.70
2023-01-19T14:09:14.874Z,12.70
2023-01-19T14:10:17.129Z,12.60
2023-01-19T14:11:19.408Z,12.60
2023-01-19T14:12:21.588Z,12.60
2023-01-19T14:13:29.906Z,12.50
2023-01-19T14:14:32.907Z,12.50
2023-01-19T14:15:35.288Z,12.50
2023-01-19T14:16:37.318Z,12.50
2023-01-19T14:17:40.441Z,12.50
2023-01-19T14:18:42.495Z,12.40
2023-01-19T14:19:49.541Z,12.30
2023-01-19T14:21:01.205Z,12.30
2023-01-19T14:22:05.008Z,12.20
2023-01-19T14:23:27.950Z,12.20
2023-01-19T14:24:33.239Z,12.10
2023-01-19T14:25:36.959Z,12.10
2023-01-19T14:27:19.281Z,11.90